METAR Formatted Surface Weather Observation
Issued by NWS

Home | Current Version | Previous Version | Text Only | Print | Product List | Glossary On
Versions: 1 2 3 4 5 6 7
000
SPZS31 NSTU 030124
MTRSPP
SPECI NSTU 030122Z 13026G33KT 5SM -SHRA VV004 23/21 A2988 RMK PK WND
13033/22=


USA.gov is the U.S. government's official web portal to all federal, state and local government web resources and services.